Time;durP1;ratioP1;P1;durP2;ratioP2;P2;SDS_P1;SDS_P2;PMS_P1;PMS_P2;Temp;Humidity;BMP_temperature;BMP_pressure;BME280_temperature;BME280_humidity;BME280_pressure;Samples;Min_cycle;Max_cycle;Signal;HPM_P1;HPM_P2
2022/04/22 00:01:12;;;;;;;12.95;6.45;;;11.80;72.60;;;;;;5055265;28;20511;-68
2022/04/22 00:03:38;;;;;;;16.42;6.35;;;11.70;72.60;;;;;;5048430;28;20107;-67
2022/04/22 00:06:04;;;;;;;13.45;6.43;;;11.70;72.70;;;;;;5048709;28;20045;-67
2022/04/22 00:08:29;;;;;;;11.65;6.40;;;11.70;72.80;;;;;;5048598;28;20363;-67
2022/04/22 00:13:39;;;;;;;12.23;6.15;;;11.70;73.00;;;;;;5028645;28;20049;-67
2022/04/22 00:16:05;;;;;;;11.02;5.63;;;11.60;73.10;;;;;;5043426;28;20106;-67
2022/04/22 00:18:32;;;;;;;10.38;6.00;;;11.60;73.00;;;;;;5048913;28;20480;-68
2022/04/22 00:20:58;;;;;;;9.63;6.18;;;11.60;73.10;;;;;;5055016;28;20148;-67
2022/04/22 00:23:25;;;;;;;11.35;6.03;;;11.60;73.20;;;;;;5068694;28;20045;-67
2022/04/22 00:25:50;;;;;;;11.93;5.85;;;11.50;73.30;;;;;;5064695;28;20051;-67
2022/04/22 00:28:16;;;;;;;11.45;6.50;;;11.50;73.30;;;;;;5068597;28;20045;-68
2022/04/22 00:30:42;;;;;;;13.52;6.38;;;11.50;73.30;;;;;;5055750;28;20081;-66
2022/04/22 00:33:07;;;;;;;10.07;6.22;;;11.50;73.40;;;;;;5049535;28;20045;-66
2022/04/22 00:35:33;;;;;;;11.95;5.70;;;11.40;73.50;;;;;;5048322;28;20084;-67
2022/04/22 00:37:59;;;;;;;18.08;6.72;;;11.40;73.60;;;;;;5047867;28;20047;-67
2022/04/22 00:40:25;;;;;;;13.65;6.38;;;11.40;73.70;;;;;;5048743;28;20037;-67
2022/04/22 00:42:50;;;;;;;10.80;6.63;;;11.40;73.60;;;;;;5048585;28;20485;-67
2022/04/22 00:45:19;;;;;;;8.85;6.53;;;11.40;73.60;;;;;;5049550;28;20044;-67
2022/04/22 00:47:45;;;;;;;13.00;5.50;;;11.30;73.70;;;;;;5066255;28;20494;-68
2022/04/22 00:50:11;;;;;;;11.00;5.60;;;11.30;73.80;;;;;;5048365;28;20040;-68
2022/04/22 00:52:37;;;;;;;15.10;6.45;;;11.30;73.80;;;;;;5047648;28;20091;-68
2022/04/22 00:55:03;;;;;;;11.95;6.22;;;11.20;73.80;;;;;;5048518;28;20044;-67
2022/04/22 00:57:29;;;;;;;11.43;6.30;;;11.20;73.80;;;;;;5066539;28;20127;-67
2022/04/22 00:59:54;;;;;;;11.27;6.70;;;11.20;73.80;;;;;;5048131;28;20040;-68
2022/04/22 01:02:20;;;;;;;11.63;5.68;;;11.20;74.00;;;;;;5048416;28;20041;-67
2022/04/22 01:10:14;;;;;;;10.25;6.38;;;11.10;74.10;;;;;;5051694;28;20052;-67
2022/04/22 01:12:40;;;;;;;12.63;6.80;;;11.10;74.10;;;;;;5050791;28;20056;-68
2022/04/22 01:15:06;;;;;;;10.68;6.15;;;11.10;74.10;;;;;;5049979;28;20057;-67
2022/04/22 01:17:31;;;;;;;14.43;7.07;;;11.00;74.20;;;;;;5064474;28;20056;-68
2022/04/22 01:19:57;;;;;;;11.65;6.72;;;11.00;74.30;;;;;;5052667;28;20481;-67
2022/04/22 01:22:23;;;;;;;13.80;6.57;;;11.00;74.40;;;;;;5051776;28;20106;-67
2022/04/22 01:24:56;;;;;;;13.82;7.65;;;10.90;74.40;;;;;;5050861;28;20071;-67
2022/04/22 01:27:23;;;;;;;9.45;6.75;;;11.00;74.70;;;;;;5065118;28;20050;-67
2022/04/22 01:29:49;;;;;;;15.93;7.20;;;10.90;74.80;;;;;;5051424;28;20102;-68
2022/04/22 01:32:14;;;;;;;15.43;7.22;;;10.80;75.00;;;;;;5054013;28;20060;-68
2022/04/22 01:34:42;;;;;;;15.48;7.07;;;10.80;75.10;;;;;;5050919;28;20505;-67
2022/04/22 01:37:08;;;;;;;13.35;7.35;;;10.80;75.20;;;;;;5051540;28;20452;-68
2022/04/22 01:39:33;;;;;;;18.50;7.07;;;10.70;75.30;;;;;;5051113;28;20128;-68
2022/04/22 01:41:59;;;;;;;15.88;6.68;;;10.60;75.40;;;;;;5051119;28;20106;-67
2022/04/22 01:44:26;;;;;;;12.90;6.88;;;10.60;75.50;;;;;;5051039;28;20398;-67
2022/04/22 01:46:52;;;;;;;16.88;7.32;;;10.60;75.70;;;;;;5060362;28;20037;-67
2022/04/22 01:49:20;;;;;;;10.18;7.07;;;10.50;75.70;;;;;;5051171;28;20067;-67
2022/04/22 01:51:45;;;;;;;14.20;7.05;;;10.40;75.80;;;;;;5051449;28;20037;-67
2022/04/22 01:54:12;;;;;;;12.27;7.47;;;10.40;75.90;;;;;;5050251;28;20068;-67
2022/04/22 01:56:37;;;;;;;19.33;8.35;;;10.40;76.00;;;;;;5051559;28;20049;-67
2022/04/22 01:59:03;;;;;;;16.92;7.75;;;10.30;76.10;;;;;;5050862;28;20494;-67
2022/04/22 02:01:29;;;;;;;15.00;7.18;;;10.30;76.10;;;;;;5060060;28;20036;-67
2022/04/22 02:03:55;;;;;;;14.20;7.53;;;10.20;76.20;;;;;;5051035;28;20032;-67
2022/04/22 02:06:20;;;;;;;16.60;7.43;;;10.20;76.40;;;;;;5052044;28;20077;-67
2022/04/22 02:08:46;;;;;;;17.40;7.82;;;10.20;76.20;;;;;;5050042;28;20037;-67
2022/04/22 02:11:13;;;;;;;12.85;7.28;;;10.10;76.30;;;;;;5056147;28;20044;-67
2022/04/22 02:13:38;;;;;;;13.00;7.10;;;10.10;76.50;;;;;;5053856;28;20103;-67
2022/04/22 02:16:07;;;;;;;9.85;7.40;;;10.00;76.50;;;;;;5052850;28;20460;-67
2022/04/22 02:18:36;;;;;;;11.18;6.80;;;10.00;76.70;;;;;;5050330;28;20383;-67
2022/04/22 02:21:04;;;;;;;12.57;7.63;;;9.90;76.60;;;;;;5050103;28;20474;-67
2022/04/22 02:23:30;;;;;;;11.20;7.70;;;9.90;76.80;;;;;;5049766;28;20048;-67
2022/04/22 02:25:55;;;;;;;17.77;7.43;;;9.90;76.80;;;;;;5053115;28;20402;-67
2022/04/22 02:28:33;;;;;;;12.80;7.68;;;9.80;77.10;;;;;;5053518;28;20515;-67
2022/04/22 02:31:11;;;;;;;18.73;9.00;;;9.80;77.00;;;;;;5051177;28;20073;-67
2022/04/22 02:33:38;;;;;;;12.20;8.27;;;9.80;77.30;;;;;;5050211;28;20080;-67
2022/04/22 02:36:06;;;;;;;16.70;8.45;;;9.70;77.40;;;;;;5050929;28;20272;-67
2022/04/22 02:38:32;;;;;;;16.63;7.45;;;9.70;77.40;;;;;;5053521;28;20061;-67
2022/04/22 02:46:28;;;;;;;11.25;7.38;;;9.70;77.50;;;;;;5042582;28;20060;-67
2022/04/22 02:49:00;;;;;;;12.07;7.22;;;9.70;77.70;;;;;;5049948;28;20566;-67
2022/04/22 02:51:26;;;;;;;16.50;7.47;;;9.60;77.80;;;;;;5049982;28;20474;-67
2022/04/22 02:53:53;;;;;;;11.38;6.45;;;9.60;77.70;;;;;;5049842;28;20445;-67
2022/04/22 02:56:20;;;;;;;10.55;6.55;;;9.60;77.70;;;;;;5047533;28;20486;-67
2022/04/22 02:58:46;;;;;;;15.25;6.85;;;9.60;77.70;;;;;;5050036;28;20127;-67
2022/04/22 03:01:14;;;;;;;13.55;6.97;;;9.50;77.90;;;;;;5049566;28;20094;-67
2022/04/22 03:03:43;;;;;;;14.57;6.60;;;9.60;77.60;;;;;;5049927;28;20103;-67
2022/04/22 03:06:09;;;;;;;11.13;6.05;;;9.50;77.40;;;;;;5049001;28;20045;-67
2022/04/22 03:08:34;;;;;;;17.60;6.80;;;9.50;77.30;;;;;;5049809;28;20452;-67
2022/04/22 03:11:00;;;;;;;11.48;6.82;;;9.50;77.30;;;;;;5049687;28;20075;-66
2022/04/22 03:13:26;;;;;;;10.93;6.75;;;9.40;77.20;;;;;;5049955;28;20421;-67
2022/04/22 03:15:52;;;;;;;13.80;6.65;;;9.40;77.10;;;;;;5049302;28;20094;-67
2022/04/22 03:18:19;;;;;;;14.38;6.50;;;9.40;77.00;;;;;;5047820;28;20102;-66
2022/04/22 03:20:44;;;;;;;9.45;5.53;;;9.40;76.80;;;;;;5048288;28;20048;-66
2022/04/22 03:23:10;;;;;;;10.10;6.07;;;9.40;76.90;;;;;;5047529;28;20044;-67
2022/04/22 03:25:36;;;;;;;9.80;6.15;;;9.40;76.90;;;;;;5047975;28;20029;-66
2022/04/22 03:28:04;;;;;;;10.50;6.00;;;9.30;76.90;;;;;;5047813;28;20460;-67
2022/04/22 03:30:30;;;;;;;9.00;5.78;;;9.30;76.80;;;;;;5048279;28;20052;-67
2022/04/22 03:32:55;;;;;;;11.23;5.80;;;9.30;76.90;;;;;;5046832;28;20045;-67
2022/04/22 03:35:21;;;;;;;12.27;5.95;;;9.30;76.70;;;;;;5048424;28;20045;-67
2022/04/22 03:37:46;;;;;;;9.05;5.95;;;9.30;76.60;;;;;;5047606;28;20536;-66
2022/04/22 03:40:12;;;;;;;9.88;5.75;;;9.30;76.70;;;;;;5047866;28;20513;-67
2022/04/22 03:42:38;;;;;;;14.23;6.00;;;9.30;76.80;;;;;;5047563;28;20099;-67
2022/04/22 03:45:04;;;;;;;14.65;8.02;;;9.20;76.90;;;;;;5047577;28;20474;-67
2022/04/22 03:47:30;;;;;;;9.98;5.68;;;9.20;76.90;;;;;;5047426;28;20047;-66
2022/04/22 03:49:56;;;;;;;10.48;5.63;;;9.10;77.00;;;;;;5048018;28;20045;-67
2022/04/22 03:52:22;;;;;;;10.13;5.68;;;9.10;77.20;;;;;;5047435;28;20068;-66
2022/04/22 03:54:48;;;;;;;12.00;7.13;;;9.10;77.20;;;;;;5048036;28;20492;-67
2022/04/22 03:59:57;;;;;;;15.00;7.10;;;9.00;77.30;;;;;;5047791;28;20045;-67
2022/04/22 04:02:23;;;;;;;19.13;7.10;;;9.00;77.20;;;;;;5047072;28;20516;-67
2022/04/22 04:04:50;;;;;;;9.65;5.53;;;9.10;77.20;;;;;;5047155;28;20052;-67
2022/04/22 04:07:16;;;;;;;9.02;5.90;;;9.00;77.10;;;;;;5045485;28;20049;-67
2022/04/22 04:17:55;;;;;;;9.75;5.45;;;8.90;77.10;;;;;;5047408;28;20048;-67
2022/04/22 04:23:14;;;;;;;13.23;6.45;;;8.90;77.20;;;;;;5028817;28;20050;-67
2022/04/22 04:25:41;;;;;;;11.52;5.60;;;8.90;77.30;;;;;;5015671;28;20096;-67
2022/04/22 04:28:10;;;;;;;8.70;5.97;;;8.90;77.30;;;;;;5035048;28;20413;-67
2022/04/22 04:30:40;;;;;;;8.13;5.55;;;8.90;77.40;;;;;;5044101;28;20052;-67
2022/04/22 04:33:07;;;;;;;10.15;5.47;;;8.90;77.30;;;;;;5045992;28;20033;-69
2022/04/22 04:35:37;;;;;;;9.27;6.00;;;8.90;77.40;;;;;;5047792;28;20049;-67
2022/04/22 04:38:03;;;;;;;17.52;7.28;;;8.90;77.40;;;;;;5048121;28;20116;-67
2022/04/22 04:40:32;;;;;;;9.05;5.47;;;8.90;77.40;;;;;;5047685;28;20037;-67
2022/04/22 04:42:57;;;;;;;12.82;6.03;;;8.80;77.50;;;;;;5046780;28;20045;-67
2022/04/22 04:45:23;;;;;;;12.32;5.82;;;8.80;77.60;;;;;;5051113;28;20124;-69
2022/04/22 04:47:49;;;;;;;9.05;5.35;;;8.80;78.30;;;;;;5051925;28;20050;-67
2022/04/22 04:50:15;;;;;;;9.77;5.45;;;9.00;79.20;;;;;;5051684;28;20128;-66
2022/04/22 04:52:41;;;;;;;9.60;5.10;;;9.20;79.70;;;;;;5050999;28;20498;-67
2022/04/22 04:55:08;;;;;;;13.07;5.10;;;9.50;79.10;;;;;;5050250;28;20052;-67
2022/04/22 04:57:34;;;;;;;8.43;4.57;;;9.60;77.80;;;;;;5051548;28;20041;-67
2022/04/22 05:00:02;;;;;;;10.40;5.85;;;9.80;77.30;;;;;;5051018;28;20045;-67
2022/04/22 05:02:28;;;;;;;7.95;4.72;;;10.10;76.70;;;;;;5050516;28;20103;-67
2022/04/22 05:04:53;;;;;;;7.88;4.95;;;10.30;75.60;;;;;;5058143;28;20485;-67
2022/04/22 05:07:20;;;;;;;11.18;5.45;;;10.20;74.90;;;;;;5051605;28;20483;-66
2022/04/22 05:09:46;;;;;;;5.60;4.35;;;10.00;74.40;;;;;;5051736;28;20052;-66
2022/04/22 05:12:11;;;;;;;12.82;5.13;;;9.80;74.60;;;;;;5050878;28;20053;-67
2022/04/22 05:14:37;;;;;;;8.13;5.10;;;9.60;74.80;;;;;;5051839;28;20041;-66
2022/04/22 05:17:03;;;;;;;13.13;6.38;;;9.40;75.20;;;;;;5051589;28;20072;-67
2022/04/22 05:19:29;;;;;;;10.48;5.80;;;9.30;75.50;;;;;;5051532;28;21131;-66
2022/04/22 05:21:55;;;;;;;13.40;4.65;;;9.20;75.70;;;;;;5051663;28;20041;-67
2022/04/22 05:24:21;;;;;;;10.70;5.50;;;9.10;75.70;;;;;;5052421;28;20045;-67
2022/04/22 05:26:47;;;;;;;9.27;5.95;;;9.10;76.10;;;;;;5054154;28;20053;-66
2022/04/22 05:34:41;;;;;;;7.18;4.65;;;8.90;76.70;;;;;;5046506;28;20540;-67
2022/04/22 05:37:07;;;;;;;10.70;5.32;;;8.90;76.70;;;;;;5050866;28;20045;-67
2022/04/22 05:39:33;;;;;;;9.43;5.40;;;8.90;76.70;;;;;;5050884;28;20459;-67
2022/04/22 05:42:00;;;;;;;7.60;4.50;;;8.80;76.70;;;;;;5051214;28;20041;-68
2022/04/22 05:44:26;;;;;;;10.88;4.75;;;8.90;76.90;;;;;;5051332;28;20041;-67
2022/04/22 05:46:51;;;;;;;9.38;4.28;;;8.80;77.00;;;;;;5051429;28;20048;-66
2022/04/22 05:49:18;;;;;;;8.48;4.50;;;8.80;76.90;;;;;;5051999;28;20049;-66
2022/04/22 05:51:43;;;;;;;9.95;4.78;;;8.90;76.90;;;;;;5056379;28;20509;-66
2022/04/22 05:54:09;;;;;;;10.50;5.20;;;8.90;76.80;;;;;;5050484;28;20075;-66
2022/04/22 05:56:35;;;;;;;6.93;4.25;;;8.90;76.70;;;;;;5049862;28;20060;-67
2022/04/22 05:59:02;;;;;;;8.38;4.95;;;9.00;76.50;;;;;;5051202;28;20068;-66
2022/04/22 06:01:28;;;;;;;8.43;4.82;;;9.00;76.60;;;;;;5058731;28;20044;-66
2022/04/22 06:03:53;;;;;;;7.63;4.43;;;9.00;76.50;;;;;;5065365;28;20037;-66
2022/04/22 06:06:19;;;;;;;10.23;4.25;;;9.10;76.40;;;;;;5050050;28;20033;-67
2022/04/22 06:11:29;;;;;;;8.43;4.35;;;9.10;76.00;;;;;;5049829;28;20049;-67
2022/04/22 06:13:55;;;;;;;5.93;4.05;;;9.10;76.20;;;;;;5056107;28;20052;-66
2022/04/22 06:16:21;;;;;;;5.15;4.15;;;9.10;76.10;;;;;;5049970;28;20414;-67
2022/04/22 06:18:47;;;;;;;10.52;3.78;;;9.20;76.20;;;;;;5049028;28;20048;-67
2022/04/22 06:21:13;;;;;;;6.85;4.30;;;9.30;75.80;;;;;;5062477;28;20040;-67
2022/04/22 06:23:38;;;;;;;8.18;4.13;;;9.30;75.90;;;;;;5059498;28;20079;-67
2022/04/22 06:26:04;;;;;;;5.90;4.05;;;9.40;75.20;;;;;;5060018;28;20105;-66
2022/04/22 06:28:30;;;;;;;5.97;3.42;;;9.50;75.30;;;;;;5070423;28;20058;-67
2022/04/22 06:30:56;;;;;;;5.13;3.50;;;9.50;75.00;;;;;;5068641;28;20161;-66
2022/04/22 06:33:22;;;;;;;6.80;3.85;;;9.50;74.90;;;;;;5060903;28;20060;-66
2022/04/22 06:35:48;;;;;;;5.72;3.10;;;9.60;74.70;;;;;;5039105;28;20033;-66
2022/04/22 06:38:18;;;;;;;10.25;3.65;;;9.60;74.70;;;;;;5049169;28;20128;-67
2022/04/22 06:46:18;;;;;;;4.45;3.33;;;9.90;73.90;;;;;;5054564;28;20076;-67
2022/04/22 06:48:44;;;;;;;6.72;4.15;;;9.90;73.50;;;;;;5046167;28;20053;-67
2022/04/22 06:51:11;;;;;;;13.38;3.70;;;10.00;73.40;;;;;;5048642;28;20059;-66
2022/04/22 06:53:37;;;;;;;4.78;3.35;;;10.00;73.00;;;;;;5048378;28;20044;-66
2022/04/22 06:56:06;;;;;;;5.63;2.70;;;10.00;72.90;;;;;;5047897;28;20036;-66
2022/04/22 06:58:37;;;;;;;6.03;3.15;;;10.00;73.00;;;;;;5047915;28;20029;-67
2022/04/22 07:01:04;;;;;;;5.13;2.38;;;10.10;72.50;;;;;;5047947;28;20048;-66
2022/04/22 07:03:29;;;;;;;5.15;2.35;;;10.00;72.60;;;;;;5047802;28;20084;-67
2022/04/22 07:05:55;;;;;;;6.03;2.92;;;10.10;72.10;;;;;;5048093;28;20080;-67
2022/04/22 07:08:21;;;;;;;8.23;3.00;;;10.10;72.10;;;;;;5049087;28;20056;-67
2022/04/22 07:10:49;;;;;;;5.03;2.72;;;10.20;71.60;;;;;;5049697;28;20145;-67
2022/04/22 07:13:18;;;;;;;5.13;2.40;;;10.20;71.40;;;;;;5049906;28;20045;-66
2022/04/22 07:15:46;;;;;;;3.72;2.15;;;10.30;71.30;;;;;;5049846;28;20049;-66
2022/04/22 07:18:13;;;;;;;8.30;2.67;;;10.30;71.20;;;;;;5049764;28;20048;-66
2022/04/22 07:20:39;;;;;;;8.13;2.90;;;10.40;70.80;;;;;;5049624;28;20044;-66
2022/04/22 07:23:05;;;;;;;3.65;2.78;;;10.50;70.80;;;;;;5049127;28;20048;-67
2022/04/22 07:25:31;;;;;;;5.30;2.42;;;10.60;70.90;;;;;;5055137;28;20117;-66
2022/04/22 07:27:58;;;;;;;4.32;1.70;;;10.70;71.10;;;;;;5069562;28;20186;-66
2022/04/22 07:30:24;;;;;;;4.15;2.20;;;10.70;71.00;;;;;;5069676;28;20048;-66
2022/04/22 07:32:51;;;;;;;6.00;1.90;;;10.80;70.70;;;;;;5069213;28;20710;-66
2022/04/22 07:35:18;;;;;;;8.00;2.28;;;10.90;70.40;;;;;;5051063;28;20041;-66
2022/04/22 07:37:52;;;;;;;3.80;2.28;;;11.00;70.20;;;;;;5049739;28;20044;-65
2022/04/22 07:40:22;;;;;;;11.07;2.97;;;11.10;70.10;;;;;;5049333;28;20045;-68
2022/04/22 07:48:20;;;;;;;5.72;2.40;;;11.30;69.90;;;;;;5049260;28;20468;-67
2022/04/22 07:50:47;;;;;;;3.90;2.20;;;11.20;69.40;;;;;;5048767;28;20588;-67
2022/04/22 07:53:20;;;;;;;5.38;1.98;;;11.30;69.50;;;;;;5049167;28;20083;-67
2022/04/22 07:55:46;;;;;;;4.25;2.03;;;11.40;69.70;;;;;;5049122;28;20044;-67
2022/04/22 07:58:13;;;;;;;4.88;2.03;;;11.50;69.50;;;;;;5047818;28;20081;-67
2022/04/22 08:00:45;;;;;;;5.05;2.33;;;11.60;69.40;;;;;;5031190;28;20045;-67
2022/04/22 08:03:17;;;;;;;4.40;2.50;;;11.60;68.20;;;;;;5048525;28;20084;-67
2022/04/22 08:05:43;;;;;;;4.25;1.92;;;11.60;68.10;;;;;;5047330;28;20045;-67
2022/04/22 08:08:09;;;;;;;3.33;2.10;;;11.60;68.10;;;;;;5049090;28;20053;-67
2022/04/22 08:10:36;;;;;;;5.00;1.98;;;11.60;68.10;;;;;;5049088;28;20110;-67
2022/04/22 08:13:05;;;;;;;6.57;2.10;;;11.70;68.10;;;;;;5048915;28;20096;-67
2022/04/22 08:15:34;;;;;;;6.10;2.47;;;11.80;68.30;;;;;;5048261;28;20359;-67
2022/04/22 08:18:01;;;;;;;5.22;2.15;;;11.80;68.30;;;;;;5044351;28;20045;-66
2022/04/22 08:20:29;;;;;;;4.18;1.63;;;11.90;68.30;;;;;;5028540;28;20052;-67
2022/04/22 08:22:55;;;;;;;9.00;2.25;;;11.90;67.60;;;;;;5027785;28;20049;-67
2022/04/22 08:25:21;;;;;;;5.75;1.83;;;12.00;67.60;;;;;;5034880;28;20499;-67
2022/04/22 08:27:47;;;;;;;5.03;2.50;;;12.10;67.60;;;;;;5048411;28;20095;-67
2022/04/22 08:30:13;;;;;;;5.63;2.35;;;12.10;67.60;;;;;;5048529;28;20051;-67
2022/04/22 08:32:39;;;;;;;5.90;2.03;;;12.10;67.30;;;;;;5047800;28;20045;-67
2022/04/22 08:35:05;;;;;;;6.97;1.88;;;12.20;66.80;;;;;;5047752;28;20622;-67
2022/04/22 08:37:31;;;;;;;5.68;1.92;;;12.20;66.10;;;;;;5048052;28;20045;-67
2022/04/22 08:39:57;;;;;;;4.93;2.05;;;12.30;65.80;;;;;;5048714;28;20474;-66
2022/04/22 08:42:24;;;;;;;11.35;2.17;;;12.30;65.90;;;;;;5048955;28;20045;-67
2022/04/22 08:44:51;;;;;;;5.78;2.30;;;12.40;66.30;;;;;;5048412;28;20099;-66
2022/04/22 08:50:02;;;;;;;3.55;2.05;;;12.50;64.70;;;;;;5048539;28;20503;-67
2022/04/22 08:52:34;;;;;;;3.10;2.00;;;12.50;65.10;;;;;;5048418;28;20051;-67
2022/04/22 08:55:02;;;;;;;7.15;2.55;;;12.60;64.30;;;;;;5048193;28;20516;-66
2022/04/22 08:57:30;;;;;;;7.75;2.20;;;12.60;64.40;;;;;;5048049;28;20076;-66
2022/04/22 09:00:01;;;;;;;6.95;2.85;;;12.60;64.80;;;;;;5048521;28;20441;-68
2022/04/22 09:02:27;;;;;;;4.82;2.38;;;12.70;65.00;;;;;;5048509;28;20083;-67
2022/04/22 09:04:53;;;;;;;4.82;2.15;;;12.80;65.10;;;;;;5048548;28;20543;-66
2022/04/22 09:07:21;;;;;;;4.70;1.92;;;12.90;64.50;;;;;;5063918;28;20052;-67
2022/04/22 09:09:49;;;;;;;4.43;2.05;;;13.00;64.20;;;;;;5047942;28;20116;-66
2022/04/22 09:12:24;;;;;;;6.55;2.10;;;13.00;64.00;;;;;;5048458;28;20092;-66
2022/04/22 09:14:57;;;;;;;7.32;2.20;;;13.10;63.90;;;;;;5048419;28;20608;-66
2022/04/22 09:17:28;;;;;;;7.65;2.17;;;13.10;63.20;;;;;;5048262;28;20099;-68
2022/04/22 09:19:55;;;;;;;5.97;2.10;;;13.20;63.70;;;;;;5047696;28;20115;-66
2022/04/22 09:22:25;;;;;;;11.80;2.28;;;13.30;63.90;;;;;;5048448;28;20072;-67
2022/04/22 09:24:56;;;;;;;4.63;1.95;;;13.40;63.30;;;;;;5048438;28;20138;-66
2022/04/22 09:27:33;;;;;;;8.93;2.05;;;13.50;63.10;;;;;;5047862;28;20437;-65
2022/04/22 09:30:00;;;;;;;7.88;2.00;;;13.50;62.50;;;;;;5048725;28;20056;-67
2022/04/22 09:32:33;;;;;;;6.00;1.92;;;13.50;62.60;;;;;;5033772;28;20071;-66
2022/04/22 09:35:10;;;;;;;4.75;2.47;;;13.60;61.50;;;;;;5049186;28;20488;-65
2022/04/22 09:43:39;;;;;;;3.70;1.73;;;13.70;61.10;;;;;;5050446;28;20160;-67
2022/04/22 09:46:05;;;;;;;3.33;1.50;;;13.80;60.20;;;;;;5050721;28;20110;-68
2022/04/22 09:48:44;;;;;;;3.45;1.73;;;13.80;60.10;;;;;;5048490;28;20092;-67
2022/04/22 09:51:27;;;;;;;5.13;1.90;;;13.90;59.80;;;;;;5049850;28;21754;-67
2022/04/22 09:54:00;;;;;;;7.15;2.10;;;13.90;59.20;;;;;;5049755;28;20444;-67
2022/04/22 09:56:26;;;;;;;3.17;1.90;;;14.00;59.50;;;;;;5050291;28;20041;-68
2022/04/22 09:58:51;;;;;;;4.60;2.05;;;14.00;60.20;;;;;;5049172;28;21312;-68
2022/04/22 10:01:17;;;;;;;6.43;1.65;;;14.10;60.60;;;;;;5032727;28;20052;-69
2022/04/22 10:03:43;;;;;;;7.43;1.92;;;14.20;60.00;;;;;;5032909;28;20063;-68
2022/04/22 10:06:09;;;;;;;8.20;2.17;;;14.20;58.70;;;;;;5049077;28;20089;-68
2022/04/22 10:08:39;;;;;;;7.28;2.20;;;14.30;59.30;;;;;;5039706;28;20571;-68
2022/04/22 10:11:07;;;;;;;5.10;2.42;;;14.30;59.20;;;;;;5051004;28;20045;-67
2022/04/22 10:13:40;;;;;;;2.90;1.80;;;14.40;59.10;;;;;;5050740;28;20132;-68
2022/04/22 10:16:09;;;;;;;3.60;2.42;;;14.50;58.80;;;;;;5050625;28;20049;-68
2022/04/22 10:18:35;;;;;;;5.80;2.22;;;14.50;57.90;;;;;;5050393;28;20045;-67
2022/04/22 10:21:02;;;;;;;4.05;1.92;;;14.50;57.80;;;;;;5050823;28;20037;-67
2022/04/22 10:23:29;;;;;;;6.25;1.90;;;14.60;57.50;;;;;;5050799;28;20485;-67
2022/04/22 10:25:55;;;;;;;5.57;1.88;;;14.60;58.10;;;;;;5050085;28;20041;-67
2022/04/22 10:28:22;;;;;;;4.05;2.15;;;14.70;57.40;;;;;;5050557;28;20059;-67
2022/04/22 10:30:51;;;;;;;5.35;1.75;;;14.70;56.30;;;;;;5050779;28;20040;-67
2022/04/22 10:33:16;;;;;;;5.95;1.95;;;14.80;56.70;;;;;;5050187;28;20055;-67
2022/04/22 10:35:44;;;;;;;5.00;2.08;;;14.80;56.10;;;;;;5050814;28;20045;-67
2022/04/22 10:38:29;;;;;;;3.60;1.95;;;14.80;56.40;;;;;;5050225;28;20048;-67
2022/04/22 10:40:55;;;;;;;7.40;2.75;;;14.90;56.20;;;;;;5049921;28;20048;-68
2022/04/22 10:43:25;;;;;;;4.07;2.10;;;14.90;56.90;;;;;;5050500;28;20037;-67
2022/04/22 10:48:39;;;;;;;6.00;2.17;;;15.10;57.30;;;;;;5050251;28;20429;-67
2022/04/22 10:51:07;;;;;;;4.57;2.00;;;15.10;56.90;;;;;;5048716;28;20490;-67
2022/04/22 10:53:40;;;;;;;7.60;2.90;;;15.20;56.50;;;;;;5049799;28;20116;-67
2022/04/22 10:56:27;;;;;;;5.22;2.15;;;15.30;56.60;;;;;;5050053;28;20048;-67
2022/04/22 10:59:15;;;;;;;4.80;2.17;;;15.30;56.00;;;;;;5049826;28;20083;-67
2022/04/22 11:01:41;;;;;;;4.82;2.38;;;15.40;57.60;;;;;;5049956;28;20041;-66
2022/04/22 11:04:18;;;;;;;7.60;2.70;;;15.40;57.90;;;;;;5049440;28;20102;-66
2022/04/22 11:06:43;;;;;;;3.22;2.33;;;15.50;57.50;;;;;;5050035;28;20428;-67
2022/04/22 11:09:09;;;;;;;4.63;2.28;;;15.60;57.00;;;;;;5049057;28;20044;-67
2022/04/22 11:11:41;;;;;;;7.57;2.50;;;15.60;57.00;;;;;;5049680;28;20391;-68
2022/04/22 11:14:24;;;;;;;6.22;2.63;;;15.60;57.10;;;;;;5048084;28;20139;-67
2022/04/22 11:16:50;;;;;;;3.97;2.33;;;15.70;57.70;;;;;;5047353;28;20044;-67
2022/04/22 11:19:25;;;;;;;7.70;3.33;;;15.60;58.00;;;;;;5049239;28;20155;-67
2022/04/22 11:21:58;;;;;;;12.50;3.10;;;15.60;58.20;;;;;;5049463;28;20464;-67
2022/04/22 11:24:34;;;;;;;10.00;3.22;;;15.60;59.10;;;;;;5049902;28;20041;-67
2022/04/22 11:27:06;;;;;;;6.97;3.28;;;15.50;59.30;;;;;;5049560;28;20041;-67
2022/04/22 11:29:31;;;;;;;5.20;3.03;;;15.50;60.30;;;;;;5048904;28;20044;-67
2022/04/22 11:32:20;;;;;;;8.98;3.20;;;15.50;59.80;;;;;;5048184;28;20061;-67
2022/04/22 11:35:11;;;;;;;7.72;3.15;;;15.50;59.50;;;;;;5047822;28;20123;-68
2022/04/22 11:37:37;;;;;;;10.95;3.47;;;15.50;59.80;;;;;;5049302;28;20389;-67
2022/04/22 11:40:06;;;;;;;7.38;3.72;;;15.60;60.30;;;;;;5048911;28;20190;-68
2022/04/22 11:42:37;;;;;;;10.93;3.40;;;15.60;60.20;;;;;;5049018;28;20386;-67
2022/04/22 11:45:09;;;;;;;7.97;3.80;;;15.60;60.60;;;;;;5048439;28;20051;-67
2022/04/22 11:47:35;;;;;;;9.55;3.50;;;15.60;60.70;;;;;;5044018;28;20070;-68
2022/04/22 11:50:00;;;;;;;7.00;2.80;;;15.70;60.70;;;;;;5048188;28;20116;-66
2022/04/22 11:52:29;;;;;;;5.50;3.53;;;15.60;60.60;;;;;;5046850;28;20064;-65
2022/04/22 11:54:59;;;;;;;9.10;2.92;;;15.80;59.70;;;;;;5048350;28;20083;-66
2022/04/22 11:57:25;;;;;;;7.65;3.80;;;15.80;57.70;;;;;;5056722;28;20389;-66
2022/04/22 12:05:34;;;;;;;6.47;3.63;;;16.00;59.30;;;;;;5049002;28;20045;-66
2022/04/22 12:08:18;;;;;;;6.40;3.47;;;15.90;59.50;;;;;;5048556;28;20087;-66
2022/04/22 12:10:48;;;;;;;8.73;3.20;;;16.10;59.80;;;;;;5048219;28;20040;-67
2022/04/22 12:13:15;;;;;;;7.95;3.30;;;16.20;58.60;;;;;;5047465;28;20085;-67
2022/04/22 12:15:46;;;;;;;6.13;3.50;;;16.20;56.90;;;;;;5047541;28;20037;-67
2022/04/22 12:18:29;;;;;;;9.55;3.05;;;16.20;56.90;;;;;;5048170;28;20037;-68
2022/04/22 12:20:56;;;;;;;7.07;2.72;;;16.40;57.80;;;;;;5048375;28;20127;-67
2022/04/22 12:23:22;;;;;;;6.20;3.03;;;16.50;57.10;;;;;;5047953;28;20045;-66
2022/04/22 12:25:55;;;;;;;5.70;3.42;;;16.50;57.20;;;;;;5047892;28;20387;-66
2022/04/22 12:28:21;;;;;;;6.95;3.40;;;16.70;56.70;;;;;;5047846;28;21089;-67
2022/04/22 12:30:47;;;;;;;12.63;4.30;;;16.70;55.60;;;;;;5045749;28;20048;-67
2022/04/22 12:33:21;;;;;;;6.82;3.55;;;16.70;55.60;;;;;;5045733;28;20053;-68
2022/04/22 12:35:49;;;;;;;10.32;3.25;;;16.80;55.50;;;;;;5047058;28;20064;-66
2022/04/22 12:38:16;;;;;;;6.93;3.63;;;16.80;54.40;;;;;;5038375;28;20051;-71
2022/04/22 12:40:48;;;;;;;10.05;3.20;;;16.90;54.30;;;;;;5048680;28;20473;-68
2022/04/22 12:43:28;;;;;;;7.22;3.65;;;16.90;53.50;;;;;;5048112;28;20045;-67
2022/04/22 12:52:15;;;;;;;7.50;3.75;;;17.10;54.00;;;;;;5026805;28;20065;-66
2022/04/22 12:54:45;;;;;;;6.03;3.22;;;17.20;52.60;;;;;;5028832;28;20475;-67
2022/04/22 12:57:18;;;;;;;11.68;3.15;;;17.10;52.50;;;;;;5028626;28;20042;-66
2022/04/22 12:59:54;;;;;;;8.73;3.08;;;17.10;53.20;;;;;;5027731;28;20136;-66
2022/04/22 13:02:35;;;;;;;7.00;4.10;;;17.30;53.50;;;;;;5038346;28;20056;-67
2022/04/22 13:05:03;;;;;;;9.57;3.88;;;17.40;52.40;;;;;;5049783;28;20481;-66
2022/04/22 13:07:44;;;;;;;12.43;3.53;;;17.50;52.50;;;;;;5051559;28;20041;-65
2022/04/22 13:10:14;;;;;;;5.70;3.20;;;17.60;52.20;;;;;;5051412;28;20148;-65
2022/04/22 13:12:41;;;;;;;8.18;3.72;;;17.70;52.20;;;;;;5050601;28;20052;-65
2022/04/22 13:15:19;;;;;;;6.95;3.80;;;17.80;51.90;;;;;;5051115;28;20095;-65
2022/04/22 13:17:51;;;;;;;6.63;3.10;;;17.90;50.90;;;;;;5051059;28;20041;-65
2022/04/22 13:20:18;;;;;;;5.50;3.30;;;18.00;50.50;;;;;;5049920;28;20085;-66
2022/04/22 13:22:45;;;;;;;6.85;3.33;;;18.10;51.00;;;;;;5050759;28;20049;-65
2022/04/22 13:25:12;;;;;;;8.13;3.70;;;18.10;51.20;;;;;;5050866;28;20524;-65
2022/04/22 13:27:39;;;;;;;4.70;2.90;;;18.30;50.90;;;;;;5050940;28;20147;-65
2022/04/22 13:30:06;;;;;;;11.23;4.70;;;18.40;50.90;;;;;;5050895;28;20112;-65
2022/04/22 13:32:32;;;;;;;10.68;4.07;;;18.50;51.70;;;;;;5049970;28;20061;-65
2022/04/22 13:34:58;;;;;;;10.68;3.83;;;18.50;52.80;;;;;;5050626;28;20048;-65
2022/04/22 13:37:24;;;;;;;8.70;3.90;;;18.30;54.00;;;;;;5050873;28;20055;-66
2022/04/22 13:39:49;;;;;;;7.38;4.18;;;18.30;54.50;;;;;;5051461;28;20044;-65
2022/04/22 13:42:15;;;;;;;5.10;3.55;;;18.20;54.50;;;;;;5049953;28;20037;-66
2022/04/22 13:52:54;;;;;;;7.05;4.78;;;18.40;52.10;;;;;;5050367;28;20452;-66
2022/04/22 13:55:20;;;;;;;10.00;3.97;;;18.50;52.50;;;;;;5051125;28;20094;-66
2022/04/22 13:57:46;;;;;;;7.80;4.13;;;18.50;53.20;;;;;;5050848;28;20060;-66
2022/04/22 14:00:12;;;;;;;5.18;3.92;;;18.60;53.10;;;;;;5051288;28;20076;-65
2022/04/22 14:02:38;;;;;;;7.10;4.03;;;18.70;53.00;;;;;;5063270;28;20048;-65
2022/04/22 14:05:04;;;;;;;8.73;4.50;;;18.70;53.10;;;;;;5051053;28;20052;-65
2022/04/22 14:07:30;;;;;;;7.75;4.10;;;18.80;53.20;;;;;;5053411;28;20041;-65